FBSK/GBE METAR and TAF weather

Enter ICAO airport designator
Station Type Date Time Source
FBSK METAR 2019/04/25 01:00 UTC NOAA

FBSK 250100Z 11004KT CAVOK 17/17 Q1019 NOSIG


Station Type Date Time Source
FBSK Decoded METAR 2019/04/25 01:00 UTC NOAA

Seretse Khama International Airport, Botswana (FBSK) 24-13S 025-55E 1005M
Apr 24, 2019 - 09:00 PM EDT / 2019.04.25 0100 UTC
Wind: from the ESE (110 degrees) at 5 MPH (4 KT):0
Visibility: greater than 7 mile(s):0
Temperature: 62 F (17 C)
Dew Point: 62 F (17 C)
Relative Humidity: 100%
Pressure (altimeter): 30.09 in. Hg (1019 hPa)
ob: FBSK 250100Z 11004KT CAVOK 17/17 Q1019 NOSIG
cycle: 1

Station Type Date Time Source
FBSK TAF 2019/04/24 18:03 UTC NOAA

TAF TAF FBSK 241500Z 2418/2524 06008KT 9999 SCT025 FEW040CB SCT065 PROB30
TEMPO 2419/2424 TSRA
BECMG 2502/2504 CAVOK
BECMG 2512/2514 FEW040CB PROB30
TEMPO 2515/2524 TSRA

Example: see airport list